Time;durP1;ratioP1;P1;durP2;ratioP2;P2;SDS_P1;SDS_P2;PMS_P1;PMS_P2;Temp;Humidity;BMP_temperature;BMP_pressure;BME280_temperature;BME280_humidity;BME280_pressure;Samples;Min_cycle;Max_cycle;Signal;HPM_P1;HPM_P2
2021/05/17 00:02:00;;;;;;;3.90;2.72;;;12.40;76.90;;;;;;5049886;28;20021;-84
2021/05/17 00:04:32;;;;;;;3.30;2.40;;;12.40;77.20;;;;;;5049489;28;20161;-84
2021/05/17 00:06:59;;;;;;;4.70;3.37;;;12.40;77.40;;;;;;5050015;28;20045;-83
2021/05/17 00:09:25;;;;;;;4.43;3.25;;;12.30;77.50;;;;;;5049786;28;20475;-84
2021/05/17 00:11:52;;;;;;;3.45;2.15;;;12.30;78.10;;;;;;5050037;28;20029;-83
2021/05/17 00:14:19;;;;;;;3.05;2.70;;;12.20;78.30;;;;;;5029872;28;20075;-84
2021/05/17 00:16:45;;;;;;;3.33;2.60;;;12.20;78.40;;;;;;5044637;28;20028;-83
2021/05/17 00:19:12;;;;;;;3.67;2.70;;;12.30;78.30;;;;;;5050113;28;20021;-83
2021/05/17 00:21:38;;;;;;;3.53;2.65;;;12.20;78.50;;;;;;5049475;28;20533;-83
2021/05/17 00:24:05;;;;;;;3.10;2.28;;;12.20;78.50;;;;;;5049005;28;20025;-84
2021/05/17 00:26:31;;;;;;;2.30;2.10;;;12.20;78.70;;;;;;5049539;28;20052;-83
2021/05/17 00:28:56;;;;;;;3.22;2.65;;;12.20;78.60;;;;;;5049745;28;20021;-83
2021/05/17 00:31:22;;;;;;;2.17;1.80;;;12.10;78.60;;;;;;5049950;28;20039;-83
2021/05/17 00:33:48;;;;;;;2.15;1.95;;;12.20;78.60;;;;;;5048701;28;20442;-83
2021/05/17 00:36:16;;;;;;;2.10;1.90;;;12.20;79.20;;;;;;5049000;28;20475;-83
2021/05/17 00:38:41;;;;;;;1.60;1.33;;;12.20;78.50;;;;;;5049542;28;20025;-83
2021/05/17 00:41:07;;;;;;;2.67;1.90;;;12.20;78.30;;;;;;5048596;28;20116;-83
2021/05/17 00:43:36;;;;;;;1.75;1.60;;;12.20;78.20;;;;;;5049428;28;20060;-84
2021/05/17 00:46:04;;;;;;;2.90;1.70;;;12.30;78.20;;;;;;5049089;28;20075;-84
2021/05/17 00:48:30;;;;;;;1.58;1.48;;;12.30;78.10;;;;;;5049669;28;20104;-84
2021/05/17 00:50:55;;;;;;;2.80;1.67;;;12.30;78.10;;;;;;5049190;28;20129;-82
2021/05/17 00:53:21;;;;;;;1.75;1.60;;;12.30;78.00;;;;;;5049125;28;20036;-83
2021/05/17 00:55:47;;;;;;;1.67;1.55;;;12.20;78.60;;;;;;5049249;28;20037;-83
2021/05/17 00:58:13;;;;;;;2.30;1.50;;;12.30;77.90;;;;;;5052285;28;20095;-84
2021/05/17 01:00:39;;;;;;;2.25;1.50;;;12.30;77.80;;;;;;5053778;28;20037;-83
2021/05/17 01:03:06;;;;;;;1.77;1.60;;;12.30;77.70;;;;;;5052594;28;20104;-83
2021/05/17 01:05:32;;;;;;;1.85;1.70;;;12.30;77.60;;;;;;5052416;28;20035;-82
2021/05/17 01:07:59;;;;;;;2.35;1.90;;;12.30;77.70;;;;;;5052964;28;20437;-83
2021/05/17 01:10:29;;;;;;;2.97;1.77;;;12.30;77.70;;;;;;5052935;28;20096;-84
2021/05/17 01:12:55;;;;;;;2.58;1.73;;;12.30;77.70;;;;;;5052862;28;20081;-84
2021/05/17 01:15:20;;;;;;;2.10;1.90;;;12.30;77.70;;;;;;5050721;28;20108;-84
2021/05/17 01:17:49;;;;;;;2.70;1.95;;;12.30;77.80;;;;;;5052356;28;20029;-84
2021/05/17 01:20:17;;;;;;;2.85;1.95;;;12.30;77.70;;;;;;5052419;28;20017;-83
2021/05/17 01:23:29;;;;;;;2.72;2.33;;;12.30;77.70;;;;;;5039954;28;20021;-84
2021/05/17 01:25:34;;;;;;;3.17;2.80;;;12.30;77.80;;;;;;5034883;28;20085;-84
2021/05/17 01:28:00;;;;;;;3.13;2.22;;;12.30;78.30;;;;;;5040063;28;20116;-84
2021/05/17 01:30:27;;;;;;;3.72;2.40;;;12.30;78.30;;;;;;5034600;28;20017;-83
2021/05/17 01:32:54;;;;;;;2.20;1.95;;;12.30;78.40;;;;;;5044246;28;20103;-84
2021/05/17 01:35:21;;;;;;;4.57;2.67;;;12.20;78.40;;;;;;5052047;28;20048;-83
2021/05/17 01:37:48;;;;;;;3.58;2.20;;;12.20;78.40;;;;;;5041607;28;20044;-84
2021/05/17 01:40:21;;;;;;;2.35;2.10;;;12.20;78.40;;;;;;5032554;28;20090;-84
2021/05/17 01:42:47;;;;;;;2.65;2.28;;;12.20;78.40;;;;;;5051838;28;20076;-84
2021/05/17 01:45:13;;;;;;;3.45;2.25;;;12.20;78.50;;;;;;5051967;28;20048;-84
2021/05/17 01:47:41;;;;;;;3.38;2.30;;;12.20;78.50;;;;;;5051544;28;20037;-84
2021/05/17 01:50:12;;;;;;;4.55;2.20;;;12.20;78.60;;;;;;5051787;28;20381;-84
2021/05/17 01:52:38;;;;;;;5.57;2.60;;;12.20;78.60;;;;;;5051652;28;20137;-84
2021/05/17 01:55:10;;;;;;;4.35;2.72;;;12.20;78.60;;;;;;5051869;28;20021;-85
2021/05/17 01:57:36;;;;;;;3.15;2.20;;;12.20;78.90;;;;;;5051687;28;20505;-84
2021/05/17 02:00:04;;;;;;;1.70;1.42;;;12.10;79.00;;;;;;5038879;28;20144;-83
2021/05/17 02:02:30;;;;;;;2.83;1.77;;;12.10;78.90;;;;;;5036562;28;20021;-83
2021/05/17 02:04:55;;;;;;;2.72;2.00;;;12.20;78.90;;;;;;5051373;28;20482;-84
2021/05/17 02:07:22;;;;;;;2.40;1.85;;;12.20;78.80;;;;;;5050037;28;20485;-83
2021/05/17 02:09:52;;;;;;;5.22;2.25;;;12.20;78.80;;;;;;5050891;28;20040;-84
2021/05/17 02:12:22;;;;;;;2.05;1.65;;;12.20;78.80;;;;;;5051515;28;20471;-83
2021/05/17 02:14:51;;;;;;;2.72;1.65;;;12.20;78.80;;;;;;5050884;28;20509;-84
2021/05/17 02:17:19;;;;;;;2.92;2.03;;;12.30;78.70;;;;;;5051505;28;20024;-82
2021/05/17 02:19:46;;;;;;;3.10;2.10;;;12.20;78.70;;;;;;5047284;28;20017;-83
2021/05/17 02:22:12;;;;;;;2.60;2.03;;;12.20;78.90;;;;;;5031933;28;20014;-83
2021/05/17 02:24:38;;;;;;;1.90;1.60;;;12.20;78.90;;;;;;5050467;28;20477;-83
2021/05/17 02:27:07;;;;;;;2.28;1.73;;;12.30;78.90;;;;;;5051599;28;20035;-82
2021/05/17 02:29:34;;;;;;;3.10;2.50;;;12.30;78.80;;;;;;5051297;28;20117;-83
2021/05/17 02:32:00;;;;;;;2.30;1.80;;;12.30;79.00;;;;;;5051824;28;20028;-82
2021/05/17 02:34:26;;;;;;;1.73;1.33;;;12.30;78.90;;;;;;5048786;28;20025;-83
2021/05/17 02:36:52;;;;;;;2.95;1.83;;;12.30;78.80;;;;;;5050833;28;20055;-83
2021/05/17 02:39:18;;;;;;;2.13;1.60;;;12.30;78.80;;;;;;5051342;28;20033;-84
2021/05/17 02:41:46;;;;;;;2.63;2.10;;;12.30;78.70;;;;;;5050783;28;20107;-84
2021/05/17 02:44:12;;;;;;;4.57;2.65;;;12.30;78.90;;;;;;5050844;28;20032;-83
2021/05/17 02:46:38;;;;;;;3.45;2.30;;;12.30;79.10;;;;;;5051151;28;20111;-84
2021/05/17 02:49:04;;;;;;;3.25;2.10;;;12.20;79.20;;;;;;5050276;28;20111;-83
2021/05/17 02:51:29;;;;;;;3.33;2.20;;;12.20;79.20;;;;;;5050470;28;20461;-84
2021/05/17 02:54:09;;;;;;;3.70;2.10;;;12.20;79.20;;;;;;5050148;28;20514;-82
2021/05/17 02:56:48;;;;;;;2.67;1.80;;;12.20;79.20;;;;;;5051152;28;20017;-84
2021/05/17 02:59:21;;;;;;;3.08;2.50;;;12.20;79.30;;;;;;5050740;28;20477;-82
2021/05/17 03:01:53;;;;;;;3.13;2.33;;;12.20;79.40;;;;;;5050035;28;20025;-82
2021/05/17 03:04:21;;;;;;;3.63;2.63;;;12.10;79.50;;;;;;5050161;28;20063;-83
2021/05/17 03:07:03;;;;;;;2.30;1.73;;;12.10;79.60;;;;;;5048876;28;20032;-82
2021/05/17 03:09:30;;;;;;;;;;;12.20;79.60;;;;;;5050714;28;20017;-82
2021/05/17 03:12:00;;;;;;;3.63;2.40;;;12.10;79.30;;;;;;5051348;28;19904;-82
2021/05/17 03:14:29;;;;;;;2.80;1.98;;;12.10;79.50;;;;;;5049934;28;20104;-83
2021/05/17 03:16:58;;;;;;;3.55;2.10;;;12.10;79.40;;;;;;5050888;28;20056;-83
2021/05/17 03:19:24;;;;;;;2.65;1.95;;;12.10;79.40;;;;;;5049640;28;20036;-83
2021/05/17 03:21:53;;;;;;;3.05;2.25;;;12.10;79.30;;;;;;5050532;28;20172;-84
2021/05/17 03:24:19;;;;;;;2.67;2.20;;;12.10;79.50;;;;;;5047456;28;20450;-84
2021/05/17 03:26:44;;;;;;;3.63;2.50;;;12.10;79.60;;;;;;5030687;28;20120;-84
2021/05/17 03:29:12;;;;;;;2.45;1.83;;;12.20;79.50;;;;;;5045334;28;20087;-85
2021/05/17 03:31:38;;;;;;;4.03;2.00;;;12.20;79.50;;;;;;5050117;28;20059;-83
2021/05/17 03:34:04;;;;;;;2.40;1.67;;;12.20;79.40;;;;;;5049720;28;20442;-83
2021/05/17 03:36:30;;;;;;;4.35;2.92;;;12.30;79.40;;;;;;5044740;28;20116;-83
2021/05/17 03:38:55;;;;;;;4.03;2.58;;;12.20;79.40;;;;;;5050119;28;20128;-82
2021/05/17 03:41:21;;;;;;;4.07;2.13;;;12.20;79.50;;;;;;5050736;28;20044;-85
2021/05/17 03:43:46;;;;;;;4.50;2.80;;;12.20;79.40;;;;;;5048973;28;20033;-84
2021/05/17 03:46:12;;;;;;;3.35;2.15;;;12.20;79.40;;;;;;5030334;28;20029;-84
2021/05/17 03:48:43;;;;;;;5.45;3.20;;;12.20;79.50;;;;;;5046105;28;20021;-83
2021/05/17 03:51:10;;;;;;;3.25;2.78;;;12.20;79.70;;;;;;5030560;28;20025;-85
2021/05/17 03:53:36;;;;;;;2.67;1.90;;;12.10;79.80;;;;;;5049231;28;20074;-86
2021/05/17 03:56:02;;;;;;;4.45;2.67;;;12.10;79.80;;;;;;5049913;28;20020;-86
2021/05/17 03:58:28;;;;;;;4.32;2.70;;;12.10;79.90;;;;;;5049824;28;20041;-88
2021/05/17 04:00:56;;;;;;;3.85;2.50;;;12.10;80.00;;;;;;5048432;28;20029;-85
2021/05/17 04:03:23;;;;;;;4.45;2.63;;;12.10;80.70;;;;;;5049853;28;20471;-85
2021/05/17 04:13:48;;;;;;;3.30;2.40;;;12.10;80.50;;;;;;5039006;28;20087;-84
2021/05/17 04:16:13;;;;;;;3.20;2.22;;;12.10;80.40;;;;;;5039943;28;20021;-86
2021/05/17 04:19:29;;;;;;;4.57;2.42;;;12.20;80.30;;;;;;5041509;28;20167;-88
2021/05/17 04:21:54;;;;;;;3.60;2.40;;;12.30;80.30;;;;;;5035124;28;20419;-86
2021/05/17 04:24:20;;;;;;;3.80;2.30;;;12.30;80.10;;;;;;5043219;28;20028;-87
2021/05/17 04:26:46;;;;;;;4.13;2.60;;;12.30;80.20;;;;;;5040847;28;20033;-84
2021/05/17 04:29:11;;;;;;;5.03;2.88;;;12.20;80.20;;;;;;5045754;28;20074;-84
2021/05/17 04:31:37;;;;;;;2.75;2.20;;;12.30;80.40;;;;;;5044719;28;20044;-84
2021/05/17 04:34:03;;;;;;;3.67;2.40;;;12.30;80.30;;;;;;5041799;28;20123;-85
2021/05/17 04:36:31;;;;;;;4.30;2.63;;;12.30;80.30;;;;;;5050265;28;20510;-85
2021/05/17 04:38:58;;;;;;;3.75;2.33;;;12.30;80.30;;;;;;5050814;28;20025;-85
2021/05/17 04:41:24;;;;;;;5.88;3.65;;;12.30;80.20;;;;;;5042030;28;20502;-85
2021/05/17 04:43:49;;;;;;;6.45;3.60;;;12.40;80.30;;;;;;5046559;28;20025;-85
2021/05/17 04:46:15;;;;;;;4.03;2.47;;;12.30;80.50;;;;;;5051983;28;20036;-86
2021/05/17 04:48:49;;;;;;;4.25;2.22;;;12.30;80.60;;;;;;5051889;28;20584;-85
2021/05/17 04:51:19;;;;;;;4.95;3.00;;;12.30;80.60;;;;;;5052712;28;20025;-85
2021/05/17 04:53:44;;;;;;;6.47;3.50;;;12.30;80.60;;;;;;5051724;28;20447;-84
2021/05/17 04:56:10;;;;;;;4.28;3.38;;;12.30;80.90;;;;;;5052724;28;20037;-84
2021/05/17 04:58:36;;;;;;;6.18;3.20;;;12.20;81.20;;;;;;5051721;28;20021;-83
2021/05/17 05:01:02;;;;;;;5.53;3.55;;;12.20;81.50;;;;;;5050503;28;20112;-84
2021/05/17 05:03:29;;;;;;;3.55;2.45;;;12.10;81.80;;;;;;5051359;28;20390;-85
2021/05/17 05:05:54;;;;;;;4.03;3.03;;;12.10;81.80;;;;;;5051579;28;20032;-86
2021/05/17 05:08:20;;;;;;;4.00;2.38;;;12.10;81.90;;;;;;5051987;28;20391;-83
2021/05/17 05:10:45;;;;;;;3.10;2.13;;;12.20;81.90;;;;;;5051811;28;20059;-84
2021/05/17 05:13:11;;;;;;;5.30;2.72;;;12.20;81.70;;;;;;5050257;28;20029;-83
2021/05/17 05:15:37;;;;;;;3.65;2.40;;;12.20;81.80;;;;;;5051233;28;20436;-84
2021/05/17 05:18:02;;;;;;;4.00;2.63;;;12.20;81.70;;;;;;5051923;28;20099;-85
2021/05/17 05:20:30;;;;;;;5.63;2.67;;;12.20;81.90;;;;;;5049522;28;20100;-85
2021/05/17 05:22:56;;;;;;;2.53;2.10;;;12.20;81.90;;;;;;5041871;28;20039;-86
2021/05/17 05:25:23;;;;;;;3.33;2.67;;;12.20;82.50;;;;;;5050541;28;20025;-86
2021/05/17 05:27:53;;;;;;;2.80;1.98;;;12.30;81.80;;;;;;5040131;28;20033;-87
2021/05/17 05:30:39;;;;;;;3.70;2.30;;;12.30;81.80;;;;;;5046169;28;20017;-85
2021/05/17 05:33:17;;;;;;;3.53;2.60;;;12.30;81.70;;;;;;5043147;28;20025;-86
2021/05/17 05:35:46;;;;;;;3.10;2.03;;;12.30;81.80;;;;;;5045911;28;20045;-87
2021/05/17 05:38:12;;;;;;;3.15;2.08;;;12.30;81.70;;;;;;5052149;28;20052;-88
2021/05/17 05:40:38;;;;;;;3.13;1.95;;;12.40;81.80;;;;;;5049160;28;20029;-88
2021/05/17 05:43:04;;;;;;;2.33;1.95;;;12.40;81.70;;;;;;5049969;28;20032;-87
2021/05/17 05:45:34;;;;;;;4.10;2.30;;;12.40;81.60;;;;;;5043276;28;20051;-87
2021/05/17 05:48:00;;;;;;;2.92;1.60;;;12.40;81.70;;;;;;5041349;28;20091;-85
2021/05/17 05:50:26;;;;;;;3.33;2.13;;;12.40;81.70;;;;;;5039289;28;20021;-85
2021/05/17 05:52:51;;;;;;;1.27;1.17;;;12.40;81.90;;;;;;5035776;28;20029;-84
2021/05/17 05:55:17;;;;;;;3.03;1.90;;;12.30;82.20;;;;;;5037557;28;20111;-85
2021/05/17 05:57:44;;;;;;;2.35;1.80;;;12.30;82.20;;;;;;5046801;28;20021;-85
2021/05/17 06:00:13;;;;;;;3.97;2.00;;;12.30;82.20;;;;;;5040807;28;20027;-86
2021/05/17 06:02:39;;;;;;;3.63;1.80;;;12.20;82.70;;;;;;5050398;28;20020;-86
2021/05/17 06:05:06;;;;;;;3.17;2.00;;;12.20;82.70;;;;;;5051485;28;20057;-86
2021/05/17 06:07:32;;;;;;;1.90;1.27;;;12.20;82.50;;;;;;5050373;28;20041;-87
2021/05/17 06:09:57;;;;;;;1.30;1.20;;;12.30;82.40;;;;;;5048760;28;20406;-86
2021/05/17 06:12:23;;;;;;;2.88;1.50;;;12.30;82.20;;;;;;5046333;28;20028;-96
2021/05/17 06:14:55;;;;;;;2.38;1.42;;;12.40;82.20;;;;;;5053807;28;20025;-94
2021/05/17 06:17:29;;;;;;;3.63;2.33;;;12.40;82.20;;;;;;5046166;28;20051;-88
2021/05/17 06:19:56;;;;;;;4.00;2.20;;;12.30;82.50;;;;;;5051189;28;20165;-90
2021/05/17 06:22:25;;;;;;;4.28;2.80;;;12.30;82.70;;;;;;5037203;28;20017;-91
2021/05/17 06:24:52;;;;;;;3.70;2.70;;;12.30;82.80;;;;;;5046154;28;20040;-90
2021/05/17 06:27:18;;;;;;;2.42;1.73;;;12.40;82.70;;;;;;5046328;28;20102;-91
2021/05/17 06:29:45;;;;;;;4.45;2.90;;;12.40;82.60;;;;;;5050746;28;20052;-90
2021/05/17 06:32:11;;;;;;;4.20;2.70;;;12.40;82.70;;;;;;5051685;28;20519;-90
2021/05/17 06:34:41;;;;;;;8.63;3.65;;;12.40;82.80;;;;;;5047441;28;20104;-89
2021/05/17 06:37:07;;;;;;;6.60;4.10;;;12.40;82.90;;;;;;5052861;28;20146;-92
2021/05/17 06:39:36;;;;;;;3.65;2.75;;;12.40;82.90;;;;;;5050047;28;20497;-90
2021/05/17 06:42:02;;;;;;;4.47;2.80;;;12.30;82.90;;;;;;5036111;28;20026;-90
2021/05/17 06:44:28;;;;;;;4.80;2.65;;;12.40;82.90;;;;;;5038872;28;20041;-91
2021/05/17 06:46:53;;;;;;;5.20;3.42;;;12.30;82.90;;;;;;5047079;28;20037;-92
2021/05/17 06:49:20;;;;;;;4.95;2.70;;;12.30;83.10;;;;;;5050597;28;20497;-92
2021/05/17 06:51:49;;;;;;;4.47;2.78;;;12.30;83.30;;;;;;5051401;28;20086;-92
2021/05/17 06:54:19;;;;;;;6.30;3.22;;;12.40;83.30;;;;;;5044694;28;20033;-91
2021/05/17 06:57:11;;;;;;;3.72;3.00;;;12.40;83.30;;;;;;5045816;28;20029;-90
2021/05/17 06:59:41;;;;;;;4.75;2.80;;;12.40;83.50;;;;;;5044220;28;20083;-88
2021/05/17 07:02:14;;;;;;;4.00;2.70;;;12.50;83.30;;;;;;5041893;28;20386;-92
2021/05/17 07:04:42;;;;;;;4.47;2.60;;;12.50;83.20;;;;;;5039895;28;20029;-93
2021/05/17 07:07:09;;;;;;;5.15;3.00;;;12.60;83.10;;;;;;5046659;28;20225;-93
2021/05/17 07:12:19;;;;;;;4.07;2.30;;;12.80;82.70;;;;;;5048657;28;20047;-91
2021/05/17 07:14:44;;;;;;;3.78;2.33;;;12.90;82.50;;;;;;5049346;28;20017;-92
2021/05/17 07:17:11;;;;;;;4.95;2.60;;;13.00;82.40;;;;;;5043386;28;20041;-88
2021/05/17 07:19:37;;;;;;;3.03;2.10;;;13.00;82.20;;;;;;5052757;28;20017;-89
2021/05/17 07:24:47;;;;;;;6.43;2.65;;;13.00;82.00;;;;;;5032278;28;20037;-91
2021/05/17 07:27:12;;;;;;;5.63;3.10;;;13.00;82.10;;;;;;5032863;28;20026;-91
2021/05/17 07:29:39;;;;;;;6.43;3.72;;;13.00;82.10;;;;;;5036379;28;20527;-91
2021/05/17 07:32:08;;;;;;;6.43;2.42;;;13.00;82.10;;;;;;5051037;28;20020;-92
2021/05/17 07:34:35;;;;;;;3.97;2.40;;;13.00;82.00;;;;;;5051847;28;20021;-92
2021/05/17 07:37:05;;;;;;;7.05;3.45;;;13.10;81.90;;;;;;5039597;28;20063;-92
2021/05/17 07:39:31;;;;;;;5.22;2.35;;;13.10;81.80;;;;;;5051661;28;20032;-91
2021/05/17 07:41:56;;;;;;;6.50;2.95;;;13.10;81.70;;;;;;5051543;28;20025;-92
2021/05/17 07:44:22;;;;;;;5.90;3.60;;;13.20;81.50;;;;;;5051919;28;20024;-92
2021/05/17 07:46:48;;;;;;;5.00;2.45;;;13.30;81.20;;;;;;5051931;28;20044;-92
2021/05/17 07:49:16;;;;;;;7.18;3.63;;;13.20;81.00;;;;;;5052114;28;20017;-90
2021/05/17 07:51:49;;;;;;;2.97;2.03;;;13.20;80.90;;;;;;5050951;28;20039;-91
2021/05/17 07:54:18;;;;;;;5.72;2.70;;;13.20;81.00;;;;;;5044622;28;20479;-91
2021/05/17 07:56:44;;;;;;;3.20;1.90;;;13.30;81.00;;;;;;5047131;28;20047;-93
2021/05/17 07:59:14;;;;;;;4.95;2.15;;;13.30;80.80;;;;;;5047162;28;20467;-92
2021/05/17 08:01:40;;;;;;;4.72;2.28;;;13.40;80.80;;;;;;5041616;28;20037;-91
2021/05/17 08:04:17;;;;;;;5.57;2.78;;;13.40;80.60;;;;;;5044911;28;20094;-92
2021/05/17 08:06:51;;;;;;;5.65;3.65;;;13.40;80.40;;;;;;5050660;28;20041;-93
2021/05/17 08:09:19;;;;;;;4.53;2.47;;;13.40;80.30;;;;;;5051307;28;20047;-91
2021/05/17 08:11:49;;;;;;;5.30;2.83;;;13.40;80.30;;;;;;5049031;28;20064;-92
2021/05/17 08:14:15;;;;;;;4.78;3.17;;;13.50;80.10;;;;;;5042458;28;20093;-91
2021/05/17 08:16:41;;;;;;;3.60;2.10;;;13.40;79.90;;;;;;5040545;28;20356;-91
2021/05/17 08:19:07;;;;;;;8.38;3.72;;;13.50;80.00;;;;;;5039729;28;20060;-93
2021/05/17 08:21:33;;;;;;;3.92;2.40;;;13.60;79.90;;;;;;5039248;28;20025;-91
2021/05/17 08:26:46;;;;;;;4.50;2.30;;;13.70;79.70;;;;;;5020616;28;20041;-91
2021/05/17 08:29:12;;;;;;;5.53;2.80;;;13.90;79.40;;;;;;5044107;28;20453;-92
2021/05/17 08:31:38;;;;;;;9.32;3.50;;;14.10;79.10;;;;;;5042507;28;20109;-92
2021/05/17 08:34:04;;;;;;;5.75;3.03;;;14.10;78.60;;;;;;5045307;28;20100;-93
2021/05/17 08:36:34;;;;;;;6.20;3.20;;;14.20;78.40;;;;;;5043093;28;20694;-92
2021/05/17 08:39:05;;;;;;;3.90;2.50;;;14.30;78.00;;;;;;5050787;28;20032;-91
2021/05/17 08:41:33;;;;;;;4.72;2.25;;;14.30;78.00;;;;;;5051134;28;20021;-91
2021/05/17 08:43:59;;;;;;;5.07;2.75;;;14.50;77.80;;;;;;5047306;28;20027;-92
2021/05/17 08:46:27;;;;;;;4.65;2.40;;;14.70;77.40;;;;;;5046339;28;20037;-93
2021/05/17 08:48:56;;;;;;;3.53;1.80;;;14.80;77.10;;;;;;5040770;28;20028;-94
2021/05/17 08:51:37;;;;;;;7.03;3.55;;;14.90;76.50;;;;;;5044887;28;20036;-91
2021/05/17 08:54:09;;;;;;;4.68;2.38;;;14.70;75.20;;;;;;5041280;28;20052;-94
2021/05/17 08:56:47;;;;;;;4.50;2.03;;;14.60;75.40;;;;;;5050363;28;20108;-92
2021/05/17 08:59:15;;;;;;;4.10;2.05;;;14.40;75.70;;;;;;5050896;28;20045;-91
2021/05/17 09:01:43;;;;;;;1.75;1.65;;;14.40;76.20;;;;;;5053187;28;20044;-92
2021/05/17 09:04:14;;;;;;;2.65;1.75;;;14.40;76.60;;;;;;5043275;28;20040;-92
2021/05/17 09:09:26;;;;;;;2.40;1.42;;;14.80;76.00;;;;;;5134070;22;20061;-93
2021/05/17 09:11:55;;;;;;;2.92;1.70;;;15.00;75.90;;;;;;5006841;28;20033;-91
2021/05/17 09:14:26;;;;;;;3.42;1.80;;;15.00;75.30;;;;;;5030192;28;20025;-92
2021/05/17 09:17:12;;;;;;;4.07;2.20;;;15.10;75.20;;;;;;5030035;28;20095;-93
2021/05/17 09:19:40;;;;;;;3.78;2.30;;;15.20;74.40;;;;;;5018749;28;20468;-91
2021/05/17 09:22:09;;;;;;;2.40;1.40;;;15.20;74.70;;;;;;5015447;28;20117;-93
2021/05/17 09:24:42;;;;;;;4.10;2.00;;;15.20;74.10;;;;;;5016287;28;20021;-92
2021/05/17 09:27:11;;;;;;;;;;;15.40;74.10;;;;;;5010929;28;20034;-92
2021/05/17 09:29:45;;;;;;;2.63;1.80;;;15.40;73.50;;;;;;5013979;28;19909;-93
2021/05/17 09:32:19;;;;;;;4.75;2.38;;;15.70;73.40;;;;;;5019370;28;20044;-92
2021/05/17 09:34:59;;;;;;;4.70;2.30;;;16.00;72.80;;;;;;5020564;28;20069;-91
2021/05/17 09:37:24;;;;;;;3.10;2.53;;;16.10;71.60;;;;;;5032446;28;20036;-92
2021/05/17 09:39:51;;;;;;;2.33;1.75;;;16.10;70.90;;;;;;5026098;28;20022;-92
2021/05/17 09:42:25;;;;;;;4.15;2.20;;;16.00;71.20;;;;;;5029690;28;20029;-92
2021/05/17 09:44:53;;;;;;;2.60;2.03;;;15.80;71.30;;;;;;5028894;28;20034;-92
2021/05/17 09:47:23;;;;;;;3.20;2.03;;;15.70;71.70;;;;;;5026993;28;20063;-94
2021/05/17 09:49:55;;;;;;;3.63;2.35;;;15.70;72.10;;;;;;5032200;28;20025;-91
2021/05/17 09:52:23;;;;;;;;;;;15.60;71.20;;;;;;5023737;28;20079;-91
2021/05/17 09:55:07;;;;;;;3.15;1.92;;;15.60;71.30;;;;;;5029943;28;20004;-93
2021/05/17 09:57:35;;;;;;;2.88;1.90;;;15.60;71.30;;;;;;5027850;28;20022;-95
2021/05/17 10:00:20;;;;;;;3.20;1.90;;;15.80;71.30;;;;;;5023437;28;20108;-92
2021/05/17 10:02:48;;;;;;;4.68;2.53;;;15.90;70.60;;;;;;5019073;28;20034;-94
2021/05/17 10:05:15;;;;;;;3.38;2.30;;;16.00;69.60;;;;;;5029879;28;20029;-96
2021/05/17 10:07:43;;;;;;;3.53;1.90;;;15.90;70.10;;;;;;5024274;28;20038;-96
2021/05/17 10:10:11;;;;;;;1.98;1.45;;;15.80;70.40;;;;;;5019334;28;20022;-95
2021/05/17 10:12:43;;;;;;;3.10;1.70;;;15.90;70.80;;;;;;5018485;28;20045;-93
2021/05/17 10:15:15;;;;;;;3.28;2.40;;;16.00;70.70;;;;;;5016512;28;20010;-92
2021/05/17 10:17:42;;;;;;;2.90;1.85;;;16.10;70.40;;;;;;5013483;28;20026;-94
2021/05/17 10:20:13;;;;;;;3.33;2.35;;;16.00;70.50;;;;;;5005109;28;20029;-93
2021/05/17 10:22:40;;;;;;;3.22;2.10;;;16.00;70.80;;;;;;5022202;28;20108;-93
2021/05/17 10:25:08;;;;;;;2.55;1.90;;;16.20;71.20;;;;;;5029377;28;20083;-91
2021/05/17 10:27:46;;;;;;;2.47;1.83;;;16.30;70.70;;;;;;5013315;28;20030;-90
2021/05/17 10:30:13;;;;;;;3.30;2.58;;;16.40;70.00;;;;;;5015734;28;20087;-90
2021/05/17 10:32:58;;;;;;;3.05;2.33;;;16.60;68.90;;;;;;5025646;28;20030;-91
2021/05/17 10:35:47;;;;;;;3.92;2.70;;;16.80;68.30;;;;;;5012762;28;20017;-91
2021/05/17 10:38:27;;;;;;;3.08;1.83;;;16.90;66.70;;;;;;5013965;28;20460;-90
2021/05/17 10:41:48;;;;;;;3.15;2.50;;;17.00;66.90;;;;;;5016986;28;20029;-89
2021/05/17 10:46:52;;;;;;;2.90;2.15;;;17.20;66.50;;;;;;5013540;28;20045;-91
2021/05/17 10:49:26;;;;;;;3.80;2.22;;;17.30;66.20;;;;;;5011236;28;20100;-90
2021/05/17 10:52:07;;;;;;;2.72;1.90;;;17.40;65.40;;;;;;5014856;28;20036;-91
2021/05/17 10:54:38;;;;;;;3.75;1.52;;;17.30;64.70;;;;;;4995800;28;20500;-89
2021/05/17 10:57:20;;;;;;;1.97;1.53;;;17.10;66.10;;;;;;5001154;28;20017;-90
2021/05/17 11:02:39;;;;;;;2.78;1.80;;;16.70;67.10;;;;;;5017681;28;20037;-90
2021/05/17 11:05:15;;;;;;;1.73;1.50;;;16.50;68.20;;;;;;5015898;28;20025;-92
2021/05/17 11:07:54;;;;;;;1.55;1.25;;;16.30;69.20;;;;;;5010163;28;20030;-91
2021/05/17 11:10:26;;;;;;;0.95;0.95;;;16.20;69.80;;;;;;5012311;28;20064;-91
2021/05/17 11:12:51;;;;;;;1.23;0.98;;;16.20;70.30;;;;;;5012790;28;20038;-91
2021/05/17 11:15:19;;;;;;;1.20;1.10;;;16.20;70.50;;;;;;5007435;28;20030;-90
2021/05/17 11:17:51;;;;;;;0.80;0.80;;;16.20;71.10;;;;;;4998487;28;20495;-91
2021/05/17 11:20:43;;;;;;;1.13;1.02;;;16.30;70.60;;;;;;5012749;28;20029;-92
2021/05/17 11:23:27;;;;;;;2.03;1.30;;;16.60;70.80;;;;;;5011224;28;20108;-92
2021/05/17 11:28:39;;;;;;;1.05;0.98;;;17.00;70.30;;;;;;5005720;28;20116;-93
2021/05/17 11:31:16;;;;;;;2.20;1.70;;;17.20;70.10;;;;;;5017608;28;20030;-92
2021/05/17 11:33:57;;;;;;;1.98;1.67;;;17.40;69.90;;;;;;5011253;28;20041;-92
2021/05/17 11:36:27;;;;;;;2.05;1.60;;;17.50;69.70;;;;;;5013202;28;20045;-91
2021/05/17 11:39:15;;;;;;;2.03;1.60;;;17.60;69.40;;;;;;5008241;28;20107;-91
2021/05/17 11:41:44;;;;;;;1.30;1.00;;;17.60;69.30;;;;;;5022315;28;20056;-93
2021/05/17 11:45:09;;;;;;;1.77;1.08;;;17.60;69.50;;;;;;4995045;28;20566;-93
2021/05/17 11:47:34;;;;;;;3.15;1.40;;;17.80;69.40;;;;;;5015540;28;20044;-92
2021/05/17 11:49:59;;;;;;;1.20;1.10;;;18.00;68.90;;;;;;5010123;28;20034;-92
2021/05/17 11:52:30;;;;;;;1.58;1.02;;;18.00;67.60;;;;;;5006452;28;20081;-93
2021/05/17 11:55:01;;;;;;;1.77;1.30;;;18.10;66.90;;;;;;5013607;28;20015;-91
2021/05/17 11:57:27;;;;;;;1.30;1.20;;;18.00;65.60;;;;;;5007159;28;20064;-92
2021/05/17 11:59:53;;;;;;;2.20;1.65;;;18.10;65.90;;;;;;5007012;28;20026;-93
2021/05/17 12:02:21;;;;;;;2.50;1.70;;;18.30;65.60;;;;;;5012165;28;20030;-93
2021/05/17 12:04:47;;;;;;;1.25;1.10;;;18.40;64.80;;;;;;5010917;28;20014;-91
2021/05/17 12:07:15;;;;;;;1.30;1.20;;;18.60;64.60;;;;;;5010258;28;20067;-92
2021/05/17 12:09:42;;;;;;;1.08;0.88;;;18.80;64.40;;;;;;5010221;28;20025;-93
2021/05/17 12:12:21;;;;;;;1.83;1.20;;;19.20;64.30;;;;;;5011599;28;20468;-92
2021/05/17 12:14:48;;;;;;;1.50;1.10;;;19.30;63.60;;;;;;5010624;28;20041;-92
2021/05/17 12:17:17;;;;;;;1.10;1.00;;;19.40;62.90;;;;;;5006584;28;20472;-92
2021/05/17 12:19:54;;;;;;;1.30;1.20;;;19.40;62.70;;;;;;5006770;28;20774;-91
2021/05/17 12:22:26;;;;;;;1.80;1.70;;;19.30;62.50;;;;;;5009960;28;20025;-91
2021/05/17 12:24:56;;;;;;;1.48;1.38;;;19.30;61.70;;;;;;5009049;28;20022;-92
2021/05/17 12:27:22;;;;;;;1.73;1.20;;;19.30;61.70;;;;;;5005949;28;20093;-93
2021/05/17 12:29:59;;;;;;;1.77;1.00;;;19.20;61.80;;;;;;4996546;28;20014;-93
2021/05/17 12:32:38;;;;;;;2.33;0.90;;;19.10;61.60;;;;;;5020833;28;20034;-94
2021/05/17 12:35:21;;;;;;;0.77;0.77;;;18.80;61.40;;;;;;5007636;28;20030;-95
2021/05/17 12:37:52;;;;;;;0.70;0.70;;;18.40;62.20;;;;;;5015787;28;20025;-92
2021/05/17 12:40:50;;;;;;;0.90;0.80;;;18.30;62.90;;;;;;5011929;28;20038;-94
2021/05/17 12:43:23;;;;;;;1.73;1.30;;;18.10;63.30;;;;;;5005398;28;20029;-94
2021/05/17 12:45:49;;;;;;;1.70;1.60;;;18.00;63.50;;;;;;5008965;28;20033;-94
2021/05/17 12:48:44;;;;;;;1.67;1.30;;;17.80;63.90;;;;;;5007323;28;20065;-93
2021/05/17 12:51:13;;;;;;;1.10;1.00;;;17.70;64.20;;;;;;5011538;28;20064;-94
2021/05/17 12:53:39;;;;;;;1.10;1.00;;;17.50;64.00;;;;;;5019395;28;20021;-92
2021/05/17 12:56:09;;;;;;;1.00;1.00;;;17.30;64.00;;;;;;5018934;28;20768;-92
2021/05/17 12:58:50;;;;;;;2.15;1.38;;;17.10;64.20;;;;;;5014833;28;20068;-91
2021/05/17 13:01:21;;;;;;;2.88;1.40;;;16.90;64.30;;;;;;5018950;28;20048;-92
2021/05/17 13:03:51;;;;;;;1.50;1.40;;;16.90;65.30;;;;;;5012064;28;20114;-91
2021/05/17 13:06:31;;;;;;;2.78;2.30;;;16.80;66.00;;;;;;5016424;28;20072;-91
2021/05/17 13:09:32;;;;;;;3.30;2.53;;;16.60;66.70;;;;;;5019405;28;20056;-90
2021/05/17 13:11:58;;;;;;;2.45;1.90;;;16.50;67.40;;;;;;4966593;28;20042;-91
2021/05/17 13:14:26;;;;;;;2.45;2.00;;;16.60;67.90;;;;;;5012727;28;20112;-92
2021/05/17 13:16:54;;;;;;;1.88;1.70;;;16.80;68.10;;;;;;5011775;28;20056;-91
2021/05/17 13:22:11;;;;;;;3.33;2.40;;;17.40;67.20;;;;;;5010887;28;20030;-92
2021/05/17 13:31:14;;;;;;;2.75;1.85;;;18.20;65.00;;;;;;5009243;28;20096;-93
2021/05/17 13:33:36;;;;;;;2.28;1.70;;;18.40;64.70;;;;;;5013165;28;20108;-92
2021/05/17 13:36:13;;;;;;;1.40;1.30;;;18.50;63.10;;;;;;5020696;28;20081;-93
2021/05/17 13:38:43;;;;;;;2.60;1.23;;;18.60;62.10;;;;;;5014860;28;20081;-92